Time;durP1;ratioP1;P1;durP2;ratioP2;P2;SDS_P1;SDS_P2;PMS_P1;PMS_P2;Temp;Humidity;BMP_temperature;BMP_pressure;BME280_temperature;BME280_humidity;BME280_pressure;Samples;Min_cycle;Max_cycle;Signal;HPM_P1;HPM_P2
2023/06/25 00:02:43;;;;;;;7.65;5.78;;;;;;;25.79;85.76;99263.72;4837230;29;20083;-77
2023/06/25 00:05:27;;;;;;;6.72;5.60;;;;;;;25.79;85.84;99269.09;4838362;29;20045;-77
2023/06/25 00:08:11;;;;;;;8.50;6.07;;;;;;;25.76;86.25;99256.25;4833650;29;20098;-77
2023/06/25 00:10:55;;;;;;;8.05;5.75;;;;;;;25.68;86.35;99248.81;4819380;29;20056;-78
2023/06/25 00:13:39;;;;;;;7.75;5.78;;;;;;;25.67;87.09;99247.22;4834577;29;20098;-77
2023/06/25 00:16:25;;;;;;;6.85;6.15;;;;;;;25.62;87.68;99253.44;4839281;29;20114;-77
2023/06/25 00:19:09;;;;;;;8.35;6.10;;;;;;;25.59;87.82;99243.28;4835463;29;20049;-78
2023/06/25 00:21:53;;;;;;;7.50;6.53;;;;;;;25.66;87.80;99240.25;4839061;29;20041;-77
2023/06/25 00:24:40;;;;;;;7.97;6.88;;;;;;;25.64;87.91;99240.50;4839068;29;20105;-78
2023/06/25 00:27:24;;;;;;;8.70;7.47;;;;;;;25.64;88.16;99242.41;4837523;29;20094;-77
2023/06/25 00:30:09;;;;;;;8.32;7.35;;;;;;;25.61;88.36;99240.31;4821315;29;20158;-78
2023/06/25 00:32:56;;;;;;;10.02;7.20;;;;;;;25.65;88.79;99246.72;4822921;29;20125;-78
2023/06/25 00:35:59;;;;;;;9.13;7.32;;;;;;;25.56;88.72;99224.28;4833763;29;20133;-78
2023/06/25 00:38:44;;;;;;;8.68;7.30;;;;;;;25.59;88.76;99221.00;4838390;29;20052;-77
2023/06/25 00:41:28;;;;;;;10.00;7.13;;;;;;;25.53;88.86;99218.34;4839310;29;20057;-77
2023/06/25 00:44:12;;;;;;;8.88;7.70;;;;;;;25.49;89.65;99216.56;4838133;29;20045;-77
2023/06/25 00:46:59;;;;;;;9.20;7.95;;;;;;;25.53;89.73;99221.03;4825705;29;20593;-78
2023/06/25 00:49:45;;;;;;;9.00;7.72;;;;;;;25.59;89.80;99216.41;4838317;29;20045;-77
2023/06/25 00:52:30;;;;;;;9.82;7.07;;;;;;;25.66;89.43;99219.56;4825098;29;20053;-77
2023/06/25 00:55:13;;;;;;;10.13;8.18;;;;;;;25.74;89.28;99219.97;4823631;29;20102;-77
2023/06/25 00:58:00;;;;;;;9.98;7.57;;;;;;;25.67;89.89;99217.66;4838683;29;20441;-77
2023/06/25 01:00:44;;;;;;;9.40;7.45;;;;;;;25.65;89.97;99222.50;4835316;29;20102;-77
2023/06/25 01:03:38;;;;;;;9.65;7.63;;;;;;;25.67;89.85;99215.78;4822781;29;20041;-77
2023/06/25 01:06:29;;;;;;;7.90;7.10;;;;;;;25.74;89.30;99215.38;4838088;29;20151;-77
2023/06/25 01:09:16;;;;;;;7.75;7.03;;;;;;;25.75;89.76;99214.31;4838788;29;20048;-77
2023/06/25 01:12:04;;;;;;;12.45;7.65;;;;;;;25.91;89.39;99224.81;4821646;29;20053;-76
2023/06/25 01:14:49;;;;;;;9.68;7.28;;;;;;;26.01;89.01;99221.16;4838627;29;20440;-77
2023/06/25 01:17:33;;;;;;;8.18;6.90;;;;;;;26.18;88.39;99218.78;4837908;29;20173;-77
2023/06/25 01:20:17;;;;;;;9.02;6.88;;;;;;;26.29;88.11;99214.00;4838000;29;20565;-77
2023/06/25 01:23:02;;;;;;;7.85;6.65;;;;;;;26.38;87.84;99214.94;4834596;29;20053;-78
2023/06/25 01:25:48;;;;;;;7.22;6.53;;;;;;;26.38;87.16;99214.94;4838743;29;20052;-77
2023/06/25 01:28:34;;;;;;;8.05;6.28;;;;;;;26.40;87.14;99211.94;4835726;29;20056;-77
2023/06/25 01:31:18;;;;;;;7.53;6.57;;;;;;;26.30;86.96;99196.78;4836793;29;20052;-77
2023/06/25 01:34:02;;;;;;;7.78;6.28;;;;;;;26.35;86.68;99199.41;4838175;29;20048;-77
2023/06/25 01:36:49;;;;;;;7.35;6.60;;;;;;;26.23;86.90;99191.78;4836610;29;20053;-77
2023/06/25 01:39:32;;;;;;;10.23;7.38;;;;;;;26.04;87.34;99183.75;4836284;29;20106;-77
2023/06/25 01:42:18;;;;;;;8.10;7.30;;;;;;;26.03;87.35;99192.91;4835151;29;20053;-76
2023/06/25 01:45:03;;;;;;;8.35;7.45;;;;;;;25.86;87.76;99173.81;4824069;29;20114;-77
2023/06/25 01:47:48;;;;;;;7.93;6.63;;;;;;;25.86;87.89;99184.56;4821387;29;20102;-77
2023/06/25 01:50:33;;;;;;;10.65;7.55;;;;;;;25.67;88.27;99185.38;4841109;29;20141;-77
2023/06/25 01:53:17;;;;;;;7.03;6.32;;;;;;;25.55;88.43;99183.16;4827228;29;20053;-78
2023/06/25 01:56:01;;;;;;;10.52;7.40;;;;;;;25.48;88.85;99177.34;4841605;29;20114;-78
2023/06/25 01:58:45;;;;;;;9.63;7.72;;;;;;;25.39;89.31;99174.47;4841623;29;20140;-77
2023/06/25 02:01:29;;;;;;;9.75;7.25;;;;;;;25.30;89.85;99170.84;4825523;29;20496;-77
2023/06/25 02:04:13;;;;;;;9.02;7.43;;;;;;;25.21;89.86;99173.38;4841495;29;20145;-77
2023/06/25 02:06:57;;;;;;;8.23;7.43;;;;;;;25.17;90.57;99178.53;4842074;29;20061;-77
2023/06/25 02:09:42;;;;;;;10.27;7.15;;;;;;;25.06;90.94;99167.13;4840944;29;20098;-77
2023/06/25 02:12:25;;;;;;;8.60;7.70;;;;;;;25.01;91.50;99167.16;4827801;29;20092;-78
2023/06/25 02:15:10;;;;;;;10.68;7.75;;;;;;;24.85;92.23;99161.19;4842226;29;20136;-78
2023/06/25 02:17:54;;;;;;;11.48;7.80;;;;;;;24.85;92.31;99165.75;4841037;29;20052;-77
2023/06/25 02:20:38;;;;;;;11.63;7.75;;;;;;;24.77;92.78;99159.16;4828019;29;20049;-77
2023/06/25 02:23:22;;;;;;;13.05;7.90;;;;;;;24.71;92.78;99152.19;4841037;29;20061;-77
2023/06/25 02:26:06;;;;;;;10.13;7.78;;;;;;;24.67;93.25;99152.78;4840694;29;20073;-77
2023/06/25 02:28:50;;;;;;;10.02;8.00;;;;;;;24.57;93.93;99146.72;4839947;29;20117;-77
2023/06/25 02:31:34;;;;;;;10.40;7.70;;;;;;;24.55;93.75;99147.00;4841807;29;20052;-77
2023/06/25 02:34:18;;;;;;;9.50;8.43;;;;;;;24.48;94.10;99142.00;4841157;29;20045;-77
2023/06/25 02:37:13;;;;;;;8.07;6.95;;;;;;;24.51;94.34;99136.03;4827334;29;20064;-77
2023/06/25 02:39:57;;;;;;;9.98;7.80;;;;;;;24.48;94.54;99133.94;4841774;29;20098;-78
2023/06/25 02:42:41;;;;;;;9.90;8.27;;;;;;;24.36;95.13;99134.31;4841731;29;20134;-77
2023/06/25 02:45:25;;;;;;;10.55;7.88;;;;;;;24.25;95.35;99132.81;4826462;29;20060;-77
2023/06/25 02:48:09;;;;;;;11.63;8.15;;;;;;;24.21;95.66;99129.13;4840610;29;20134;-77
2023/06/25 02:50:53;;;;;;;11.68;8.35;;;;;;;24.12;96.15;99122.75;4840331;29;20045;-77
2023/06/25 02:53:37;;;;;;;12.75;7.60;;;;;;;24.06;96.09;99106.72;4840584;29;20401;-77
2023/06/25 02:56:21;;;;;;;10.80;8.52;;;;;;;23.99;97.21;99114.28;4841348;29;20399;-78
2023/06/25 02:59:05;;;;;;;10.93;8.38;;;;;;;23.92;97.92;99105.75;4840611;29;20445;-77
2023/06/25 03:01:49;;;;;;;10.02;8.43;;;;;;;23.92;98.08;99111.91;4837606;29;20097;-77
2023/06/25 03:04:32;;;;;;;11.18;8.43;;;;;;;23.92;97.66;99108.41;4840949;29;20462;-77
2023/06/25 03:07:17;;;;;;;11.00;8.55;;;;;;;23.90;97.53;99098.00;4840237;29;20080;-77
2023/06/25 03:10:00;;;;;;;11.27;8.38;;;;;;;23.84;97.97;99090.28;4827186;29;20058;-77
2023/06/25 03:12:44;;;;;;;9.52;7.78;;;;;;;23.87;97.95;99090.50;4826908;29;20045;-77
2023/06/25 03:15:29;;;;;;;11.98;8.63;;;;;;;23.77;99.03;99080.66;4837567;29;20412;-77
2023/06/25 03:18:13;;;;;;;9.88;8.50;;;;;;;23.75;98.97;99085.50;4840061;29;20102;-77
2023/06/25 03:20:56;;;;;;;12.13;8.27;;;;;;;23.88;98.32;99075.22;4840871;29;20083;-77
2023/06/25 03:23:40;;;;;;;10.35;7.97;;;;;;;23.85;98.25;99070.44;4836133;29;20098;-77
2023/06/25 03:26:24;;;;;;;12.82;8.20;;;;;;;23.77;98.81;99074.50;4826422;29;20049;-76
2023/06/25 03:29:08;;;;;;;11.63;7.75;;;;;;;23.79;98.71;99070.47;4839191;29;20045;-78
2023/06/25 03:31:52;;;;;;;10.02;7.90;;;;;;;23.74;98.83;99062.47;4826689;29;20049;-77
2023/06/25 03:34:36;;;;;;;10.65;8.77;;;;;;;23.77;98.70;99058.44;4840418;29;20084;-76
2023/06/25 03:37:20;;;;;;;10.70;8.57;;;;;;;23.73;99.12;99054.72;4838124;29;20045;-76
2023/06/25 03:40:05;;;;;;;11.07;8.10;;;;;;;23.70;99.05;99053.41;4838116;29;20088;-77
2023/06/25 03:42:49;;;;;;;11.38;8.77;;;;;;;23.64;98.87;99046.50;4839874;29;20036;-76
2023/06/25 03:45:33;;;;;;;12.05;8.63;;;;;;;23.63;99.31;99047.56;4825599;29;20089;-77
2023/06/25 03:48:17;;;;;;;14.30;8.10;;;;;;;23.61;99.35;99055.09;4839248;29;20426;-76
2023/06/25 03:51:01;;;;;;;10.68;8.40;;;;;;;23.74;99.01;99048.28;4826217;29;20238;-76
2023/06/25 03:53:45;;;;;;;11.30;8.77;;;;;;;23.65;98.88;99040.06;4826388;29;20057;-76
2023/06/25 03:56:29;;;;;;;11.70;8.95;;;;;;;23.56;99.61;99045.22;4840453;29;20409;-76
2023/06/25 03:59:13;;;;;;;11.43;8.85;;;;;;;23.60;99.25;99037.44;4825716;29;20044;-77
2023/06/25 04:01:58;;;;;;;11.90;8.18;;;;;;;23.60;99.05;99045.47;4838803;29;20109;-75
2023/06/25 04:04:42;;;;;;;9.75;7.20;;;;;;;23.61;99.05;99044.38;4837034;29;20561;-76
2023/06/25 04:07:26;;;;;;;10.20;7.70;;;;;;;23.71;98.72;99038.13;4839960;29;20057;-76
2023/06/25 04:10:10;;;;;;;10.90;7.38;;;;;;;23.70;98.49;99028.50;4838153;29;20080;-76
2023/06/25 04:12:54;;;;;;;8.65;7.50;;;;;;;23.67;98.35;99029.84;4837738;29;20099;-76
2023/06/25 04:15:38;;;;;;;11.98;7.88;;;;;;;23.65;98.26;99035.47;4839354;29;20044;-77
2023/06/25 04:18:22;;;;;;;13.07;7.47;;;;;;;23.62;98.17;99030.69;4840041;29;20052;-76
2023/06/25 04:21:06;;;;;;;8.55;6.40;;;;;;;23.68;98.31;99037.63;4839676;29;20045;-76
2023/06/25 04:23:50;;;;;;;8.63;6.82;;;;;;;23.71;97.67;99030.88;4838707;29;20105;-76
2023/06/25 04:26:34;;;;;;;8.18;7.07;;;;;;;23.75;97.39;99031.91;4838688;29;20101;-77
2023/06/25 04:29:18;;;;;;;8.88;6.57;;;;;;;23.77;97.26;99034.31;4839443;29;20068;-76
2023/06/25 04:32:03;;;;;;;8.52;6.05;;;;;;;23.84;96.62;99037.47;4838729;29;20133;-77
2023/06/25 04:34:47;;;;;;;7.63;6.10;;;;;;;23.91;96.48;99027.22;4821826;29;20072;-77
2023/06/25 04:37:31;;;;;;;8.52;6.43;;;;;;;23.99;95.71;99036.53;4824713;29;20044;-77
2023/06/25 04:40:15;;;;;;;6.10;5.50;;;;;;;24.04;95.35;99031.13;4838011;29;20084;-77
2023/06/25 04:42:59;;;;;;;6.45;5.82;;;;;;;23.98;95.36;99032.25;4825765;29;20114;-77
2023/06/25 04:45:44;;;;;;;10.30;6.88;;;;;;;23.95;95.41;99032.78;4838672;29;20121;-76
2023/06/25 04:48:28;;;;;;;6.47;5.80;;;;;;;23.93;95.35;99022.38;4839097;29;20044;-76
2023/06/25 04:51:13;;;;;;;7.45;6.00;;;;;;;24.02;95.06;99024.44;4839647;29;20044;-77
2023/06/25 04:53:57;;;;;;;10.30;6.00;;;;;;;24.13;94.61;99020.59;4825474;29;20133;-77
2023/06/25 04:56:41;;;;;;;6.03;5.28;;;;;;;24.14;93.90;99013.31;4835357;29;20093;-77
2023/06/25 04:59:25;;;;;;;9.50;5.60;;;;;;;24.14;93.51;99018.69;4837436;29;20542;-77
2023/06/25 05:02:09;;;;;;;8.02;5.55;;;;;;;24.10;93.20;99016.59;4838552;29;20654;-78
2023/06/25 05:04:53;;;;;;;6.00;5.00;;;;;;;24.18;93.38;99014.38;4825362;29;20049;-77
2023/06/25 05:07:37;;;;;;;5.68;4.82;;;;;;;24.30;92.54;99006.69;4838218;29;20041;-77
2023/06/25 05:10:22;;;;;;;6.25;5.20;;;;;;;24.29;92.34;99005.09;4823529;29;20101;-77
2023/06/25 05:13:05;;;;;;;6.07;5.18;;;;;;;24.35;92.33;99003.94;4838326;29;20053;-77
2023/06/25 05:15:50;;;;;;;6.53;5.35;;;;;;;24.41;92.00;99003.91;4839054;29;20056;-77
2023/06/25 05:18:33;;;;;;;5.72;5.13;;;;;;;24.44;91.87;98990.69;4835937;29;20103;-77
2023/06/25 05:21:17;;;;;;;6.63;5.18;;;;;;;24.45;92.24;98988.81;4839024;29;20166;-77
2023/06/25 05:24:05;;;;;;;6.00;5.40;;;;;;;24.48;92.53;98993.63;4837025;29;20080;-77
2023/06/25 05:26:49;;;;;;;6.63;5.18;;;;;;;24.63;92.07;98996.09;4819429;29;20073;-77
2023/06/25 05:29:33;;;;;;;5.85;5.25;;;;;;;24.71;91.94;98994.66;4824148;29;20056;-77
2023/06/25 05:32:18;;;;;;;6.35;4.82;;;;;;;24.77;91.46;98992.72;4834983;29;20082;-77
2023/06/25 05:35:02;;;;;;;10.63;5.63;;;;;;;24.89;90.48;98985.03;4837541;29;20083;-77
2023/06/25 05:37:46;;;;;;;5.18;4.68;;;;;;;25.03;89.91;98984.28;4838400;29;20088;-77
2023/06/25 05:40:30;;;;;;;8.18;5.07;;;;;;;24.99;89.51;98983.28;4837414;29;20053;-77
2023/06/25 05:43:14;;;;;;;6.20;4.38;;;;;;;25.05;89.05;98984.78;4823933;29;20057;-77
2023/06/25 05:45:58;;;;;;;5.95;4.80;;;;;;;25.10;88.09;98979.34;4821751;29;20060;-76
2023/06/25 05:48:43;;;;;;;5.82;4.47;;;;;;;25.18;88.07;98981.38;4833834;29;20060;-76
2023/06/25 05:51:27;;;;;;;5.80;4.50;;;;;;;25.34;87.19;98986.47;4838102;29;20468;-77
2023/06/25 05:54:11;;;;;;;5.90;4.50;;;;;;;25.25;86.04;98986.34;4830997;29;20099;-77
2023/06/25 05:56:56;;;;;;;5.63;5.03;;;;;;;25.30;85.81;98980.09;4834430;29;20048;-77
2023/06/25 05:59:40;;;;;;;5.05;4.07;;;;;;;25.26;83.95;98977.22;4822025;29;20064;-77
2023/06/25 06:02:24;;;;;;;4.53;4.05;;;;;;;25.43;82.95;98971.28;4827656;29;20098;-76
2023/06/25 06:05:09;;;;;;;4.60;4.20;;;;;;;25.44;82.02;98972.06;4837702;29;20569;-77
2023/06/25 06:07:53;;;;;;;4.78;4.35;;;;;;;25.59;81.99;98979.13;4836008;29;20052;-77
2023/06/25 06:10:37;;;;;;;6.60;3.90;;;;;;;25.58;81.33;98966.78;4838207;29;20143;-77
2023/06/25 06:13:21;;;;;;;4.70;4.22;;;;;;;25.77;79.56;98967.50;4836522;29;20095;-77
2023/06/25 06:16:05;;;;;;;5.15;4.28;;;;;;;25.84;79.51;98966.28;4838001;29;20098;-77
2023/06/25 06:18:49;;;;;;;4.93;4.28;;;;;;;25.90;79.78;98965.09;4838085;29;20064;-77
2023/06/25 06:21:33;;;;;;;5.57;4.05;;;;;;;25.96;80.35;98966.59;4820934;29;20056;-77
2023/06/25 06:24:17;;;;;;;4.40;4.00;;;;;;;26.00;79.39;98961.41;4831511;29;20454;-78
2023/06/25 06:27:01;;;;;;;4.53;3.72;;;;;;;25.86;77.97;98956.03;4836925;29;20102;-77
2023/06/25 06:29:45;;;;;;;4.63;3.83;;;;;;;26.15;77.38;98954.94;4825473;29;20057;-77
2023/06/25 06:32:29;;;;;;;3.97;3.53;;;;;;;26.27;77.17;98944.47;4820418;29;20449;-78
2023/06/25 06:35:18;;;;;;;4.20;3.80;;;;;;;26.37;77.37;98948.84;4837249;29;20809;-78
2023/06/25 06:38:03;;;;;;;5.78;3.75;;;;;;;26.38;76.64;98948.56;4840567;29;20138;-78
2023/06/25 06:40:47;;;;;;;4.35;3.90;;;;;;;26.49;75.53;98946.44;4823392;29;20481;-78
2023/06/25 06:43:32;;;;;;;4.47;3.60;;;;;;;26.41;75.40;98944.44;4838955;29;20779;-79
2023/06/25 06:46:17;;;;;;;4.43;3.80;;;;;;;26.66;74.73;98935.00;4832881;29;20117;-78
2023/06/25 06:49:01;;;;;;;4.15;3.65;;;;;;;26.63;74.23;98930.22;4840314;29;20054;-78
2023/06/25 06:51:45;;;;;;;4.35;3.95;;;;;;;26.78;73.14;98930.97;4840832;29;20064;-78
2023/06/25 06:54:29;;;;;;;6.35;3.90;;;;;;;26.89;72.18;98926.19;4826492;29;20076;-79
2023/06/25 06:57:13;;;;;;;4.80;3.40;;;;;;;26.93;71.59;98922.56;4839886;29;20098;-78
2023/06/25 06:59:57;;;;;;;6.68;3.78;;;;;;;27.16;72.24;98925.25;4836042;29;20147;-79
2023/06/25 07:02:41;;;;;;;4.97;3.60;;;;;;;27.15;72.38;98917.47;4840017;29;20064;-79
2023/06/25 07:05:26;;;;;;;3.53;3.03;;;;;;;27.12;72.49;98913.50;4837587;29;20093;-78
2023/06/25 07:08:09;;;;;;;5.03;3.67;;;;;;;27.20;72.64;98903.84;4826109;29;20041;-79
2023/06/25 07:10:53;;;;;;;4.20;3.80;;;;;;;27.41;71.57;98917.59;4838514;29;20052;-78
2023/06/25 07:13:37;;;;;;;3.80;3.42;;;;;;;27.53;71.24;98913.56;4840317;29;20113;-79
2023/06/25 07:16:22;;;;;;;5.68;3.60;;;;;;;27.55;70.91;98900.56;4825886;29;20095;-77
2023/06/25 07:19:06;;;;;;;5.03;3.92;;;;;;;27.57;70.01;98911.84;4823309;29;20045;-78
2023/06/25 07:21:50;;;;;;;3.67;3.38;;;;;;;27.79;68.20;98903.66;4834224;29;20101;-77
2023/06/25 07:24:34;;;;;;;5.25;4.05;;;;;;;28.12;68.47;98912.47;4818508;29;20090;-77
2023/06/25 07:27:18;;;;;;;4.10;3.70;;;;;;;28.44;66.99;98903.16;4833048;29;20561;-77
2023/06/25 07:30:03;;;;;;;6.45;3.78;;;;;;;28.59;66.13;98901.88;4833583;29;20045;-77
2023/06/25 07:32:47;;;;;;;4.57;3.38;;;;;;;28.81;66.68;98896.66;4834269;29;20050;-77
2023/06/25 07:35:31;;;;;;;4.35;3.78;;;;;;;29.08;65.67;98895.44;4816370;29;20116;-76
2023/06/25 07:38:16;;;;;;;4.40;3.55;;;;;;;29.33;64.60;98884.91;4821852;29;20489;-77
2023/06/25 07:41:00;;;;;;;6.15;4.00;;;;;;;29.23;65.68;98877.94;4833189;29;20342;-77
2023/06/25 07:43:44;;;;;;;4.00;3.60;;;;;;;28.99;65.97;98882.00;4834865;29;20041;-77
2023/06/25 07:46:28;;;;;;;4.28;3.63;;;;;;;28.95;66.89;98874.84;4831998;29;20054;-77
2023/06/25 07:49:12;;;;;;;6.30;3.67;;;;;;;28.87;66.08;98879.16;4827770;29;20504;-77
2023/06/25 07:51:56;;;;;;;4.10;3.70;;;;;;;28.82;66.50;98871.22;4821315;29;20045;-77
2023/06/25 07:54:40;;;;;;;4.95;3.70;;;;;;;28.84;67.26;98869.00;4826971;29;20098;-77
2023/06/25 07:57:24;;;;;;;5.05;4.00;;;;;;;28.70;67.41;98861.03;4831130;29;20044;-77
2023/06/25 08:00:09;;;;;;;5.45;4.25;;;;;;;28.71;67.07;98852.59;4836865;29;20130;-77
2023/06/25 08:02:53;;;;;;;5.15;4.25;;;;;;;28.70;67.27;98856.44;4816915;29;20041;-77
2023/06/25 08:05:40;;;;;;;4.80;4.32;;;;;;;28.79;66.94;98853.72;4836402;29;20428;-77
2023/06/25 08:08:32;;;;;;;5.72;4.47;;;;;;;28.83;67.06;98848.50;4838656;29;20112;-77
2023/06/25 08:11:16;;;;;;;4.03;3.72;;;;;;;29.05;66.99;98855.56;4827536;29;20102;-77
2023/06/25 08:14:00;;;;;;;4.72;3.90;;;;;;;29.09;67.05;98851.13;4842965;29;20057;-77
2023/06/25 08:16:44;;;;;;;4.38;3.97;;;;;;;29.17;66.35;98842.19;4842572;29;20186;-77
2023/06/25 08:19:28;;;;;;;5.50;5.00;;;;;;;28.87;66.86;98842.09;4842282;29;20045;-77
2023/06/25 08:22:13;;;;;;;4.70;4.30;;;;;;;29.15;66.46;98844.41;4825434;29;20466;-77
2023/06/25 08:24:57;;;;;;;5.25;4.75;;;;;;;29.28;67.08;98828.28;4834219;29;20061;-84
2023/06/25 08:27:41;;;;;;;6.57;4.78;;;;;;;29.46;67.41;98829.81;4825416;29;20053;-83
2023/06/25 08:30:25;;;;;;;7.68;4.60;;;;;;;29.53;67.49;98821.19;4838846;29;20133;-84
2023/06/25 08:33:09;;;;;;;8.20;4.93;;;;;;;29.88;66.31;98825.63;4838281;29;20049;-83
2023/06/25 08:35:55;;;;;;;7.63;4.60;;;;;;;29.99;66.94;98821.38;4839430;29;20444;-85
2023/06/25 08:38:39;;;;;;;5.93;5.03;;;;;;;30.06;66.17;98810.84;4824548;29;20125;-88
2023/06/25 08:41:23;;;;;;;5.68;4.72;;;;;;;30.20;66.03;98807.06;4839960;29;20065;-86
2023/06/25 08:44:07;;;;;;;6.15;4.60;;;;;;;30.12;65.08;98805.25;4826072;29;20434;-90
2023/06/25 08:46:54;;;;;;;5.25;4.38;;;;;;;29.99;65.44;98801.66;4838045;29;20424;-86
2023/06/25 08:49:43;;;;;;;5.75;4.65;;;;;;;30.26;65.41;98794.91;4823847;29;20106;-88
2023/06/25 08:52:27;;;;;;;7.28;4.95;;;;;;;30.46;64.38;98798.69;4841534;29;20083;-90
2023/06/25 08:55:12;;;;;;;6.70;4.88;;;;;;;30.16;65.53;98795.31;4828359;29;20171;-87
2023/06/25 08:57:56;;;;;;;6.10;4.97;;;;;;;30.10;64.49;98791.25;4842912;29;20048;-87
2023/06/25 09:00:40;;;;;;;5.00;4.53;;;;;;;30.24;64.85;98791.75;4841203;29;20523;-88
2023/06/25 09:03:24;;;;;;;6.20;5.10;;;;;;;30.30;64.71;98785.00;4841095;29;20081;-87
2023/06/25 09:06:14;;;;;;;5.53;4.82;;;;;;;30.47;64.46;98783.25;4839372;29;20094;-86
2023/06/25 09:08:58;;;;;;;6.50;5.10;;;;;;;30.57;64.30;98782.03;4831038;29;20052;-87
2023/06/25 09:11:42;;;;;;;5.72;4.72;;;;;;;30.48;64.39;98768.59;4837362;29;20045;-86
2023/06/25 09:14:26;;;;;;;5.78;4.90;;;;;;;30.85;64.02;98774.06;4837930;29;20072;-85
2023/06/25 09:17:10;;;;;;;5.20;4.68;;;;;;;31.04;63.80;98778.97;4838971;29;20070;-85
2023/06/25 09:19:54;;;;;;;7.18;5.35;;;;;;;30.89;63.44;98771.50;4831554;29;20052;-83
2023/06/25 09:22:56;;;;;;;9.23;5.85;;;;;;;31.18;64.16;98773.19;4839332;29;20122;-84
2023/06/25 09:25:40;;;;;;;5.85;4.82;;;;;;;31.41;63.50;98761.91;4840057;29;20538;-86
2023/06/25 09:28:25;;;;;;;7.88;4.93;;;;;;;31.35;63.64;98763.28;4824770;29;20102;-90
2023/06/25 09:31:09;;;;;;;6.05;4.53;;;;;;;31.68;63.02;98765.03;4838728;29;20133;-81
2023/06/25 09:33:53;;;;;;;5.32;4.82;;;;;;;31.97;62.28;98757.72;4823574;29;20072;-85
2023/06/25 09:36:37;;;;;;;7.63;5.03;;;;;;;31.80;61.67;98755.28;4838583;29;20077;-84
2023/06/25 09:39:21;;;;;;;5.90;5.40;;;;;;;31.75;61.47;98751.66;4825912;29;20525;-84
2023/06/25 09:42:06;;;;;;;6.60;5.75;;;;;;;31.84;61.55;98753.47;4838983;29;20061;-84
2023/06/25 09:44:52;;;;;;;6.82;5.40;;;;;;;32.00;61.60;98746.16;4839509;29;20065;-84
2023/06/25 09:47:41;;;;;;;6.85;5.78;;;;;;;31.69;61.28;98742.19;4838048;29;20049;-85
2023/06/25 09:50:47;;;;;;;5.78;5.18;;;;;;;31.81;60.46;98746.00;4826037;29;20392;-84
2023/06/25 09:53:37;;;;;;;6.25;5.38;;;;;;;31.70;62.06;98737.53;4839532;29;20125;-84
2023/06/25 09:56:22;;;;;;;7.18;5.65;;;;;;;32.19;62.11;98731.13;4839762;29;20053;-85
2023/06/25 09:59:07;;;;;;;9.07;5.82;;;;;;;32.14;61.67;98734.13;4837899;29;20053;-86
2023/06/25 10:01:52;;;;;;;6.13;5.53;;;;;;;32.09;61.70;98727.00;4837662;29;20049;-86
2023/06/25 10:04:36;;;;;;;6.60;5.45;;;;;;;32.15;61.10;98735.69;4838037;29;20052;-85
2023/06/25 10:07:23;;;;;;;5.95;5.40;;;;;;;32.27;60.55;98726.69;4838605;29;20076;-85
2023/06/25 10:10:18;;;;;;;8.70;5.93;;;;;;;32.11;59.72;98723.94;4840435;29;20090;-84
2023/06/25 10:13:03;;;;;;;6.75;5.68;;;;;;;32.19;59.36;98720.28;4841630;29;20053;-84
2023/06/25 10:15:47;;;;;;;7.13;5.80;;;;;;;32.39;60.74;98715.00;4842779;29;20052;-86
2023/06/25 10:18:39;;;;;;;6.18;5.57;;;;;;;32.18;59.86;98713.28;4841001;29;20045;-84
2023/06/25 10:21:25;;;;;;;6.13;5.60;;;;;;;32.16;59.88;98710.13;4843173;29;21821;-85
2023/06/25 10:24:09;;;;;;;6.45;5.75;;;;;;;32.19;60.55;98709.41;4842950;29;20462;-84
2023/06/25 10:26:56;;;;;;;6.13;5.63;;;;;;;32.10;60.82;98704.16;4842718;29;20048;-85
2023/06/25 10:29:41;;;;;;;6.90;5.80;;;;;;;32.07;59.97;98707.56;4843189;29;20126;-84
2023/06/25 10:32:29;;;;;;;7.20;6.10;;;;;;;32.43;60.55;98702.31;4842197;29;20085;-85
2023/06/25 10:35:17;;;;;;;7.53;5.72;;;;;;;32.50;59.33;98696.25;4842765;29;20049;-84
2023/06/25 10:38:08;;;;;;;6.10;5.55;;;;;;;32.51;58.99;98689.66;4840824;29;20097;-85
2023/06/25 10:40:54;;;;;;;6.45;5.85;;;;;;;32.69;58.24;98684.69;4828357;29;20604;-85
2023/06/25 10:43:38;;;;;;;6.35;5.57;;;;;;;32.77;59.20;98686.41;4842603;29;20044;-84
2023/06/25 10:46:29;;;;;;;6.45;5.78;;;;;;;33.04;59.43;98675.78;4842302;29;20053;-87
2023/06/25 10:49:19;;;;;;;7.18;6.03;;;;;;;32.78;58.05;98685.25;4828314;29;20135;-82
2023/06/25 10:52:05;;;;;;;6.50;5.90;;;;;;;32.71;58.56;98679.69;4841015;29;20052;-85
2023/06/25 10:54:56;;;;;;;6.55;5.97;;;;;;;32.62;59.16;98680.66;4828906;29;20400;-83
2023/06/25 10:57:40;;;;;;;7.10;6.40;;;;;;;32.79;58.82;98681.41;4839895;29;20141;-84
2023/06/25 11:00:27;;;;;;;7.28;6.28;;;;;;;32.66;58.09;98674.53;4838042;29;20045;-84
2023/06/25 11:03:12;;;;;;;7.78;6.40;;;;;;;32.61;57.74;98665.47;4828546;29;20044;-84
2023/06/25 11:05:57;;;;;;;6.63;5.93;;;;;;;32.82;58.60;98664.41;4828180;29;20061;-84
2023/06/25 11:08:42;;;;;;;7.40;6.07;;;;;;;33.16;58.14;98653.91;4828643;29;20125;-86
2023/06/25 11:11:28;;;;;;;6.63;5.88;;;;;;;33.46;55.67;98658.81;4829070;29;20061;-85
2023/06/25 11:14:12;;;;;;;6.45;5.72;;;;;;;33.93;56.31;98648.00;4828122;29;20114;-86
2023/06/25 11:16:56;;;;;;;7.13;6.25;;;;;;;33.73;55.48;98642.59;4842323;29;20040;-87
2023/06/25 11:19:40;;;;;;;7.03;6.32;;;;;;;34.11;55.16;98644.84;4840094;29;20084;-86
2023/06/25 11:22:26;;;;;;;7.35;6.38;;;;;;;34.47;54.34;98639.97;4840896;29;20050;-85
2023/06/25 11:25:13;;;;;;;6.93;6.20;;;;;;;34.68;53.12;98639.53;4827271;29;20061;-86
2023/06/25 11:28:13;;;;;;;9.00;5.90;;;;;;;34.75;52.39;98636.94;4840066;29;20057;-85
2023/06/25 11:30:59;;;;;;;7.13;6.43;;;;;;;34.79;53.13;98630.72;4841608;29;20045;-84
2023/06/25 11:33:53;;;;;;;7.22;6.10;;;;;;;34.72;52.47;98628.69;4842371;29;20044;-84
2023/06/25 11:36:38;;;;;;;7.13;6.43;;;;;;;34.68;52.23;98634.09;4840946;29;20052;-85
2023/06/25 11:39:22;;;;;;;8.55;6.53;;;;;;;34.09;53.53;98617.97;4829166;29;20101;-85
2023/06/25 11:42:15;;;;;;;7.15;6.32;;;;;;;34.35;54.36;98624.63;4841416;29;20424;-86
2023/06/25 11:45:05;;;;;;;7.27;6.20;;;;;;;34.74;53.24;98623.66;4841611;29;20518;-85
2023/06/25 11:47:54;;;;;;;7.03;6.22;;;;;;;34.56;54.32;98618.72;4841146;29;20068;-86
2023/06/25 11:50:38;;;;;;;7.50;6.57;;;;;;;34.72;51.39;98615.88;4841607;29;20048;-86
2023/06/25 11:53:21;;;;;;;6.68;6.07;;;;;;;35.02;52.23;98606.16;4825335;29;20048;-85
2023/06/25 11:56:05;;;;;;;8.50;6.72;;;;;;;34.92;52.47;98604.03;4842181;29;20049;-86
2023/06/25 11:58:49;;;;;;;8.48;6.90;;;;;;;34.83;53.22;98610.56;4839837;29;20052;-86
2023/06/25 12:01:33;;;;;;;9.52;6.40;;;;;;;34.72;53.15;98599.50;4839492;29;20048;-85
2023/06/25 12:04:17;;;;;;;6.68;6.07;;;;;;;34.55;52.78;98606.25;4841346;29;20040;-86
2023/06/25 12:07:02;;;;;;;7.53;6.53;;;;;;;34.65;53.28;98602.13;4841564;29;20121;-85
2023/06/25 12:09:46;;;;;;;9.68;6.50;;;;;;;34.74;52.59;98610.81;4841778;29;20049;-83
2023/06/25 12:12:30;;;;;;;7.75;6.13;;;;;;;34.92;53.87;98606.75;4826966;29;20129;-85
2023/06/25 12:15:14;;;;;;;6.72;6.13;;;;;;;35.02;53.57;98600.69;4839214;29;20053;-85
2023/06/25 12:17:59;;;;;;;8.27;6.85;;;;;;;34.91;53.40;98586.09;4840302;29;20082;-86
2023/06/25 12:20:42;;;;;;;7.95;7.15;;;;;;;35.15;53.21;98593.81;4841204;29;20045;-85
2023/06/25 12:23:26;;;;;;;7.15;6.43;;;;;;;35.55;52.66;98588.03;4841341;29;20049;-86
2023/06/25 12:26:10;;;;;;;6.55;5.95;;;;;;;35.39;51.50;98589.06;4839059;29;20052;-87
2023/06/25 12:28:55;;;;;;;7.10;6.25;;;;;;;35.56;51.01;98590.41;4838851;29;20088;-86
2023/06/25 12:31:39;;;;;;;7.13;6.43;;;;;;;35.45;50.26;98584.00;4841272;29;20098;-84
2023/06/25 12:34:23;;;;;;;10.77;7.13;;;;;;;35.58;50.17;98581.84;4825872;29;20540;-85
2023/06/25 12:37:07;;;;;;;7.65;6.95;;;;;;;35.81;50.37;98575.44;4827182;29;20044;-85
2023/06/25 12:39:51;;;;;;;8.77;6.68;;;;;;;36.69;50.29;98574.91;4839310;29;20040;-84
2023/06/25 12:42:34;;;;;;;6.97;6.28;;;;;;;37.04;47.34;98584.47;4825639;29;20080;-86
2023/06/25 12:45:18;;;;;;;7.25;6.55;;;;;;;37.13;47.44;98571.22;4840585;29;20060;-85
2023/06/25 12:48:03;;;;;;;7.13;6.43;;;;;;;37.32;47.24;98569.31;4825953;29;20094;-86
2023/06/25 12:50:50;;;;;;;7.35;6.20;;;;;;;37.42;47.99;98560.34;4826379;29;20079;-86
2023/06/25 12:53:34;;;;;;;12.20;6.65;;;;;;;37.62;46.54;98551.81;4826001;29;20098;-84
2023/06/25 12:56:19;;;;;;;9.07;6.30;;;;;;;37.92;46.99;98556.09;4837713;29;20125;-85